Time;durP1;ratioP1;P1;durP2;ratioP2;P2;SDS_P1;SDS_P2;PMS_P1;PMS_P2;Temp;Humidity;BMP_temperature;BMP_pressure;BME280_temperature;BME280_humidity;BME280_pressure;Samples;Min_cycle;Max_cycle;Signal;HPM_P1;HPM_P2
2023/07/26 00:00:53;;;;;;;;;;;;;;;17.10;57.48;99792.06;104781;1288;62272;-86
2023/07/26 00:03:39;;;;;;;;;;;;;;;17.09;57.64;99796.33;104917;1288;59865;-86
2023/07/26 00:06:26;;;;;;;;;;;;;;;17.06;57.53;99799.42;104941;1289;74622;-85
2023/07/26 00:09:12;;;;;;;;;;;;;;;17.03;57.58;99802.94;104864;1288;67175;-86
2023/07/26 00:11:58;;;;;;;;;;;;;;;16.98;57.70;99809.48;104954;1288;72700;-86
2023/07/26 00:14:45;;;;;;;;;;;;;;;16.98;57.85;99813.50;104881;1288;61941;-85
2023/07/26 00:17:31;;;;;;;;;;;;;;;16.98;57.98;99812.25;104941;1289;60061;-86
2023/07/26 00:20:18;;;;;;;;;;;;;;;16.97;57.97;99814.93;104845;1289;77643;-85
2023/07/26 00:23:04;;;;;;;;;;;;;;;16.96;57.93;99820.38;105010;1290;66519;-86
2023/07/26 00:25:51;;;;;;;;;;;;;;;16.94;57.97;99830.05;104921;1289;71342;-86
2023/07/26 00:28:37;;;;;;;;;;;;;;;16.95;58.08;99829.51;104846;1288;62334;-86
2023/07/26 00:31:24;;;;;;;;;;;;;;;16.95;58.21;99826.20;104773;1288;62584;-85
2023/07/26 00:34:10;;;;;;;;;;;;;;;16.95;58.37;99824.27;104883;1288;75184;-86
2023/07/26 00:37:00;;;;;;;;;;;;;;;16.94;58.39;99828.85;104966;1289;67216;-86
2023/07/26 00:39:46;;;;;;;;;;;;;;;16.94;58.41;99826.07;104967;1288;71404;-85
2023/07/26 00:42:32;;;;;;;;;;;;;;;16.92;58.60;99827.76;104977;1288;62080;-85
2023/07/26 00:45:19;;;;;;;;;;;;;;;16.93;58.48;99827.35;104971;1289;62024;-86
2023/07/26 00:48:05;;;;;;;;;;;;;;;16.93;58.66;99832.88;104950;1288;75092;-85
2023/07/26 00:50:52;;;;;;;;;;;;;;;16.91;58.72;99832.65;104884;1288;67207;-86
2023/07/26 00:53:39;;;;;;;;;;;;;;;16.91;58.85;99836.15;104944;1289;75392;-85
2023/07/26 00:56:25;;;;;;;;;;;;;;;16.89;58.94;99834.34;104912;1288;62095;-85
2023/07/26 00:59:12;;;;;;;;;;;;;;;16.91;59.15;99838.08;104922;1289;62040;-85
2023/07/26 01:01:59;;;;;;;;;;;;;;;16.91;59.04;99839.97;104855;1288;75369;-84
2023/07/26 01:04:45;;;;;;;;;;;;;;;16.88;59.22;99839.42;104902;1288;67402;-85
2023/07/26 01:07:36;;;;;;;;;;;;;;;16.81;59.23;99841.02;104868;1289;73397;-85
2023/07/26 01:10:29;;;;;;;;;;;;;;;16.82;59.13;99842.54;104948;1288;62006;-85
2023/07/26 01:13:27;;;;;;;;;;;;;;;16.83;59.36;99840.21;105010;1288;62172;-85
2023/07/26 01:16:13;;;;;;;;;;;;;;;16.83;59.55;99838.30;104985;1288;75112;-85
2023/07/26 01:19:00;;;;;;;;;;;;;;;16.83;59.47;99840.20;104984;1288;71368;-85
2023/07/26 01:21:46;;;;;;;;;;;;;;;16.85;59.72;99845.14;104819;1289;71305;-85
2023/07/26 01:24:32;;;;;;;;;;;;;;;16.84;59.70;99849.93;104883;1288;62147;-84
2023/07/26 01:27:19;;;;;;;;;;;;;;;16.78;59.75;99854.58;104896;1288;61988;-85
2023/07/26 01:30:05;;;;;;;;;;;;;;;16.75;59.97;99856.66;104898;1288;74261;-85
2023/07/26 01:32:54;;;;;;;;;;;;;;;16.71;59.95;99853.41;104785;1288;67352;-84
2023/07/26 01:35:41;;;;;;;;;;;;;;;16.67;60.12;99856.58;104820;1288;74086;-84
2023/07/26 01:38:29;;;;;;;;;;;;;;;16.66;60.15;99865.17;104916;1289;62054;-85
2023/07/26 01:41:16;;;;;;;;;;;;;;;16.66;60.25;99874.55;104760;1288;61946;-85
2023/07/26 01:44:03;;;;;;;;;;;;;;;16.65;60.21;99874.61;104893;1288;77333;-84
2023/07/26 01:46:52;;;;;;;;;;;;;;;16.65;60.24;99876.72;104878;1288;68464;-85
2023/07/26 01:49:39;;;;;;;;;;;;;;;16.63;60.32;99881.66;104938;1288;71909;-85
2023/07/26 01:52:26;;;;;;;;;;;;;;;16.61;60.25;99887.55;104815;1288;62120;-85
2023/07/26 01:55:12;;;;;;;;;;;;;;;16.58;60.37;99881.79;104970;1288;62080;-85
2023/07/26 01:57:58;;;;;;;;;;;;;;;16.57;60.37;99877.66;104959;1288;76916;-85
2023/07/26 02:00:45;;;;;;;;;;;;;;;16.55;60.39;99879.48;104987;1288;67488;-86
2023/07/26 02:03:31;;;;;;;;;;;;;;;16.56;60.51;99882.56;104912;1288;72415;-84
2023/07/26 02:06:19;;;;;;;;;;;;;;;16.57;60.47;99882.51;104896;1288;62126;-86
2023/07/26 02:09:05;;;;;;;;;;;;;;;16.55;60.59;99877.75;104891;1288;62703;-86
2023/07/26 02:11:51;;;;;;;;;;;;;;;16.53;60.60;99872.80;104868;1288;74060;-86
2023/07/26 02:14:38;;;;;;;;;;;;;;;16.54;60.68;99872.05;104918;1288;67192;-86
2023/07/26 02:17:27;;;;;;;;;;;;;;;16.55;60.80;99873.04;104942;1288;74048;-85
2023/07/26 02:20:15;;;;;;;;;;;;;;;16.56;60.68;99867.80;105056;1288;60092;-86
2023/07/26 02:23:01;;;;;;;;;;;;;;;16.55;60.79;99867.45;105029;1288;61992;-86
2023/07/26 02:25:47;;;;;;;;;;;;;;;16.56;60.85;99870.20;104902;1288;73972;-85
2023/07/26 02:28:34;;;;;;;;;;;;;;;16.56;60.83;99874.04;104945;1288;67265;-85
2023/07/26 02:31:20;;;;;;;;;;;;;;;16.54;60.99;99877.29;104901;1288;72107;-86
2023/07/26 02:34:06;;;;;;;;;;;;;;;16.53;60.98;99880.99;105028;1288;61982;-85
2023/07/26 02:36:52;;;;;;;;;;;;;;;16.53;61.06;99885.00;105018;1288;59724;-86
2023/07/26 02:39:39;;;;;;;;;;;;;;;16.52;61.03;99892.00;105028;1288;74252;-86
2023/07/26 02:42:27;;;;;;;;;;;;;;;16.53;61.11;99897.17;105027;1288;67489;-86
2023/07/26 02:45:14;;;;;;;;;;;;;;;16.53;61.16;99898.55;105039;1294;75092;-86
2023/07/26 02:48:01;;;;;;;;;;;;;;;16.54;61.06;99904.92;104960;1294;62072;-86
2023/07/26 02:50:49;;;;;;;;;;;;;;;16.55;61.11;99906.08;105013;1288;60097;-87
2023/07/26 02:53:39;;;;;;;;;;;;;;;16.56;61.25;99906.58;104992;1288;74893;-86
2023/07/26 02:56:26;;;;;;;;;;;;;;;16.56;61.23;99910.23;105042;1288;68486;-86
2023/07/26 02:59:18;;;;;;;;;;;;;;;16.56;61.25;99910.25;105022;1288;75394;-86
2023/07/26 03:02:04;;;;;;;;;;;;;;;16.55;61.29;99910.60;104987;1294;62052;-86
2023/07/26 03:04:50;;;;;;;;;;;;;;;16.55;61.34;99914.80;105264;1289;62574;-86
2023/07/26 03:07:37;;;;;;;;;;;;;;;16.50;61.45;99917.50;105223;1288;73963;-86
2023/07/26 03:10:23;;;;;;;;;;;;;;;16.45;61.47;99920.17;105010;1289;68964;-86
2023/07/26 03:13:10;;;;;;;;;;;;;;;16.46;61.52;99924.30;104987;1288;71418;-87
2023/07/26 03:16:17;;;;;;;;;;;;;;;16.45;61.57;99922.61;105372;1288;62049;-86
2023/07/26 03:19:03;;;;;;;;;;;;;;;16.42;61.68;99925.77;105352;1288;60417;-86
2023/07/26 03:21:50;;;;;;;;;;;;;;;16.40;61.63;99928.30;105328;1288;76456;-86
2023/07/26 03:24:37;;;;;;;;;;;;;;;16.38;61.67;99926.27;105316;1288;68104;-86
2023/07/26 03:27:23;;;;;;;;;;;;;;;16.37;61.67;99928.05;105310;1288;71801;-86
2023/07/26 03:30:11;;;;;;;;;;;;;;;16.32;61.76;99925.54;105331;1288;60208;-86
2023/07/26 03:33:02;;;;;;;;;;;;;;;16.34;61.87;99931.21;105356;1289;61947;-85
2023/07/26 03:35:48;;;;;;;;;;;;;;;16.34;61.89;99936.92;105277;1288;75290;-86
2023/07/26 03:38:34;;;;;;;;;;;;;;;16.33;61.85;99939.45;105361;1288;67524;-86
2023/07/26 03:41:20;;;;;;;;;;;;;;;16.34;61.97;99943.88;105242;1288;71999;-86
2023/07/26 03:44:07;;;;;;;;;;;;;;;16.36;61.95;99945.36;105292;1288;64186;-86
2023/07/26 03:46:54;;;;;;;;;;;;;;;16.38;61.96;99942.29;105288;1288;60420;-86
2023/07/26 03:49:40;;;;;;;;;;;;;;;16.40;62.02;99945.69;105346;1288;73965;-86
2023/07/26 03:52:26;;;;;;;;;;;;;;;16.39;62.06;99938.40;105280;1288;68608;-86
2023/07/26 03:55:12;;;;;;;;;;;;;;;16.39;62.08;99943.31;105232;1288;71389;-86
2023/07/26 03:57:58;;;;;;;;;;;;;;;16.42;62.13;99947.34;105264;1288;62075;-86
2023/07/26 04:00:44;;;;;;;;;;;;;;;16.45;62.05;99950.30;105377;1289;61964;-85
2023/07/26 04:03:31;;;;;;;;;;;;;;;16.46;62.14;99953.20;105249;1288;73901;-86
2023/07/26 04:06:17;;;;;;;;;;;;;;;16.49;62.11;99957.92;105325;1288;71173;-86
2023/07/26 04:09:06;;;;;;;;;;;;;;;16.51;62.18;99962.48;105182;1288;71795;-86
2023/07/26 04:11:57;;;;;;;;;;;;;;;16.53;62.26;99965.17;105219;1288;62164;-85
2023/07/26 04:14:48;;;;;;;;;;;;;;;16.54;62.37;99963.77;105283;1288;61091;-86
2023/07/26 04:17:54;;;;;;;;;;;;;;;16.55;62.35;99967.52;105291;1288;74159;-86
2023/07/26 04:20:43;;;;;;;;;;;;;;;16.60;62.39;99969.58;105451;1288;70043;-86
2023/07/26 04:23:36;;;;;;;;;;;;;;;16.65;62.37;99973.29;105406;1288;73921;-86
2023/07/26 04:26:25;;;;;;;;;;;;;;;16.68;62.42;99969.15;105623;1288;59850;-85
2023/07/26 04:29:40;;;;;;;;;;;;;;;16.72;62.36;99971.73;105360;1288;61827;-86
2023/07/26 04:32:35;;;;;;;;;;;;;;;16.76;62.35;99973.23;105389;1288;73364;-86
2023/07/26 04:35:23;;;;;;;;;;;;;;;16.76;62.29;99972.52;105455;1288;67868;-86
2023/07/26 04:38:29;;;;;;;;;;;;;;;16.80;62.36;99976.48;105334;1288;71445;-86
2023/07/26 04:41:36;;;;;;;;;;;;;;;16.82;62.47;99979.00;105408;1291;62028;-86
2023/07/26 04:44:46;;;;;;;;;;;;;;;16.87;62.34;99983.96;105472;1289;61830;-86
2023/07/26 04:47:34;;;;;;;;;;;;;;;16.93;62.46;99985.42;105376;1293;74142;-86
2023/07/26 04:50:30;;;;;;;;;;;;;;;16.98;62.52;99987.75;105337;1288;66978;-86
2023/07/26 04:53:39;;;;;;;;;;;;;;;17.00;62.63;99986.63;105434;1288;72809;-86
2023/07/26 04:56:46;;;;;;;;;;;;;;;17.04;62.58;99983.96;105401;1288;61905;-87
2023/07/26 04:59:54;;;;;;;;;;;;;;;17.12;62.69;99975.20;105448;1288;62036;-86
2023/07/26 05:02:44;;;;;;;;;;;;;;;17.18;62.82;99976.73;105414;1289;75658;-87
2023/07/26 05:05:53;;;;;;;;;;;;;;;17.26;62.76;99985.90;105379;1288;67228;-87
2023/07/26 05:08:41;;;;;;;;;;;;;;;17.37;62.76;99996.27;105427;1288;71255;-87
2023/07/26 05:11:39;;;;;;;;;;;;;;;17.49;62.70;99992.14;105377;1288;62063;-87
2023/07/26 05:14:31;;;;;;;;;;;;;;;17.61;62.75;99991.16;105467;1293;59685;-86
2023/07/26 05:17:56;;;;;;;;;;;;;;;17.77;62.83;99996.85;105371;1291;74455;-87
2023/07/26 05:20:47;;;;;;;;;;;;;;;17.88;62.53;100000.27;105390;1288;67227;-87
2023/07/26 05:23:57;;;;;;;;;;;;;;;17.92;62.51;100004.25;105319;1288;71381;-87
2023/07/26 05:27:17;;;;;;;;;;;;;;;;;;;;;
2023/07/26 05:32:37;;;;;;;;;;;;;;;18.05;62.58;100005.44;105461;1290;75369;-87
2023/07/26 05:36:03;;;;;;;;;;;;;;;18.02;62.58;100011.01;105385;1294;69463;-87
2023/07/26 05:39:30;;;;;;;;;;;;;;;18.00;62.63;100017.77;105112;1296;72582;-87
2023/07/26 05:58:39;;;;;;;;;;;;;;;18.10;62.69;100025.91;105562;1288;62003;-87
2023/07/26 06:04:12;;;;;;;;;;;;;;;18.55;62.72;100032.16;105463;1288;67696;-87
2023/07/26 06:07:51;;;;;;;;;;;;;;;;;;;;;
2023/07/26 06:11:07;;;;;;;;;;;;;;;19.31;62.51;100032.70;105301;1289;61938;-87
2023/07/26 06:14:37;;;;;;;;;;;;;;;19.64;62.16;100038.73;105328;1289;62555;-87
2023/07/26 06:17:45;;;;;;;;;;;;;;;19.72;61.98;100035.57;104937;1295;74024;-87
2023/07/26 06:20:56;;;;;;;;;;;;;;;19.75;61.95;100039.20;104868;1294;67402;-87
2023/07/26 06:24:06;;;;;;;;;;;;;;;19.73;61.83;100044.40;104961;1299;71466;-86
2023/07/26 06:26:57;;;;;;;;;;;;;;;19.72;61.76;100042.91;104963;1294;60821;-86
2023/07/26 06:29:45;;;;;;;;;;;;;;;19.70;61.84;100047.91;104997;1297;61982;-86
2023/07/26 06:32:31;;;;;;;;;;;;;;;19.65;61.74;100050.53;104672;1294;226429;-86
2023/07/26 06:35:37;;;;;;;;;;;;;;;19.60;61.70;100053.14;104780;1297;68495;-87
2023/07/26 06:38:29;;;;;;;;;;;;;;;19.56;61.77;100054.23;105060;1294;72136;-86
2023/07/26 06:41:38;;;;;;;;;;;;;;;19.53;61.62;100054.45;104857;1294;61935;-86
2023/07/26 06:44:56;;;;;;;;;;;;;;;19.49;61.68;100057.77;104880;1295;61968;-86
2023/07/26 06:48:21;;;;;;;;;;;;;;;19.48;61.59;100063.95;104785;1294;73111;-87
2023/07/26 06:51:28;;;;;;;;;;;;;;;19.46;61.69;100068.63;104935;1294;67978;-87
2023/07/26 06:54:36;;;;;;;;;;;;;;;19.45;61.61;100072.50;105218;1290;71387;-87
2023/07/26 06:58:12;;;;;;;;;;;;;;;;;;;;;
2023/07/26 07:01:34;;;;;;;;;;;;;;;19.39;61.60;100081.80;105532;1288;60132;-88
2023/07/26 07:04:57;;;;;;;;;;;;;;;19.42;61.58;100083.76;105490;1288;73539;-87
2023/07/26 07:08:27;;;;;;;;;;;;;;;19.74;61.41;100085.24;101711;1289;70608;-87
2023/07/26 07:11:42;;;;;;;;;;;;;;;20.16;61.54;100086.83;105403;1288;60119;-87
2023/07/26 07:14:29;;;;;;;;;;;;;;;20.30;61.23;100085.52;105368;1288;61946;-87
2023/07/26 07:17:37;;;;;;;;;;;;;;;20.34;61.20;100086.48;105304;1289;75122;-87
2023/07/26 07:20:48;;;;;;;;;;;;;;;20.48;61.16;100088.94;105394;1290;68664;-87
2023/07/26 07:23:55;;;;;;;;;;;;;;;20.56;60.91;100083.83;105440;1290;71993;-87
2023/07/26 07:27:21;;;;;;;;;;;;;;;20.51;60.73;100088.73;105348;1291;61463;-87
2023/07/26 07:30:52;;;;;;;;;;;;;;;20.45;60.81;100088.96;105402;1291;62169;-88
2023/07/26 07:33:59;;;;;;;;;;;;;;;20.41;60.80;100093.41;105552;1291;74854;-88
2023/07/26 07:37:25;;;;;;;;;;;;;;;20.32;60.82;100097.14;105378;1290;67430;-88
2023/07/26 07:40:52;;;;;;;;;;;;;;;20.23;60.73;100098.11;105294;1294;70305;-87
2023/07/26 07:44:18;;;;;;;;;;;;;;;20.13;60.65;100096.45;105331;1289;60132;-88
2023/07/26 07:47:24;;;;;;;;;;;;;;;20.04;60.75;100104.67;105292;1288;61913;-87
2023/07/26 07:50:12;;;;;;;;;;;;;;;19.95;60.71;100104.89;105379;1288;74116;-87
2023/07/26 07:53:21;;;;;;;;;;;;;;;19.84;60.67;100104.05;105412;1288;66206;-87
2023/07/26 08:00:36;;;;;;;;;;;;;;;;;;;;;
2023/07/26 08:04:23;;;;;;;;;;;;;;;;;;;;;
2023/07/26 08:11:39;;;;;;;;;;;;;;;19.34;60.87;100113.61;103526;1311;68169;-89
2023/07/26 08:15:00;;;;;;;;;;;;;;;;;;;;;
2023/07/26 08:18:20;;;;;;;;;;;;;;;19.28;60.83;100112.59;103319;1312;62161;-88
2023/07/26 08:22:00;;;;;;;;;;;;;;;;;;;;;
2023/07/26 08:25:48;;;;;;;;;;;;;;;;;;;;;
2023/07/26 08:29:05;;;;;;;;;;;;;;;19.20;60.93;100111.84;102941;1318;67276;-88
2023/07/26 08:36:32;;;;;;;;;;;;;;;;;;;;;
2023/07/26 08:39:51;;;;;;;;;;;;;;;;;;;;;
2023/07/26 08:43:20;;;;;;;;;;;;;;;;;;;;;
2023/07/26 08:46:57;;;;;;;;;;;;;;;;;;;;;
2023/07/26 08:57:38;;;;;;;;;;;;;;;19.64;60.73;100146.77;101921;1330;66385;-90
2023/07/26 09:08:39;;;;;;;;;;;;;;;;;;;;;
2023/07/26 09:15:38;;;;;;;;;;;;;;;;;;;;;
2023/07/26 09:22:29;;;;;;;;;;;;;;;20.05;59.93;100146.45;101620;1338;60263;-90
2023/07/26 09:26:03;;;;;;;;;;;;;;;;;;;;;
2023/07/26 09:29:40;;;;;;;;;;;;;;;20.32;59.67;100144.77;101125;1346;74564;-91
2023/07/26 09:33:15;;;;;;;;;;;;;;;;;;;;;
2023/07/26 09:36:34;;;;;;;;;;;;;;;20.69;59.40;100147.48;101863;1329;72536;-88
2023/07/26 09:40:19;;;;;;;;;;;;;;;;;;;;;
2023/07/26 09:43:51;;;;;;;;;;;;;;;20.57;58.83;100137.38;102243;1326;60257;-87
2023/07/26 09:47:28;;;;;;;;;;;;;;;;;;;;;
2023/07/26 09:50:43;;;;;;;;;;;;;;;;;;;;;
2023/07/26 10:01:18;;;;;;;;;;;;;;;21.08;58.42;100121.86;102283;1322;60664;-87
2023/07/26 10:04:59;;;;;;;;;;;;;;;21.26;58.45;100124.88;102629;1318;74642;-88
2023/07/26 10:08:20;;;;;;;;;;;;;;;21.43;58.19;100122.64;103689;1312;67652;-88
2023/07/26 10:15:45;;;;;;;;;;;;;;;21.62;57.70;100120.61;102719;1320;59981;-87
2023/07/26 10:22:08;;;;;;;;;;;;;;;21.83;57.52;100124.17;102226;1331;74999;-88
2023/07/26 10:25:16;;;;;;;;;;;;;;;21.91;57.37;100119.56;102169;1327;68328;-87
2023/07/26 10:28:48;;;;;;;;;;;;;;;21.93;57.06;100120.13;102256;1330;72505;-90
2023/07/26 10:31:47;;;;;;;;;;;;;;;21.92;56.81;100121.60;102172;1326;60942;-89
2023/07/26 10:34:37;;;;;;;;;;;;;;;21.94;56.95;100124.98;102496;1321;60101;-89
2023/07/26 10:37:35;;;;;;;;;;;;;;;21.94;56.71;100123.04;102449;1321;74597;-87
2023/07/26 10:40:50;;;;;;;;;;;;;;;21.94;56.45;100126.40;102635;1317;67564;-87
2023/07/26 10:44:04;;;;;;;;;;;;;;;;;;;;;
2023/07/26 10:51:05;;;;;;;;;;;;;;;;;;;;;
2023/07/26 10:54:34;;;;;;;;;;;;;;;;;;;;;
2023/07/26 10:57:53;;;;;;;;;;;;;;;22.18;55.52;100119.45;103259;1313;67577;-87
2023/07/26 11:01:13;;;;;;;;;;;;;;;;;;;;;
2023/07/26 11:04:17;;;;;;;;;;;;;;;22.17;55.26;100117.38;104394;1305;60225;-87
2023/07/26 11:07:46;;;;;;;;;;;;;;;22.23;55.08;100118.21;104259;1300;60286;-86
2023/07/26 11:11:07;;;;;;;;;;;;;;;22.24;55.12;100117.41;104399;1301;78015;-86
2023/07/26 11:14:20;;;;;;;;;;;;;;;22.17;54.84;100116.16;104353;1297;67680;-87
2023/07/26 11:17:22;;;;;;;;;;;;;;;22.11;54.83;100118.54;104662;1297;73228;-88
2023/07/26 11:20:28;;;;;;;;;;;;;;;22.00;54.79;100118.63;104604;1297;60540;-86
2023/07/26 11:23:35;;;;;;;;;;;;;;;21.87;54.81;100117.64;104680;1297;59545;-85
2023/07/26 11:26:23;;;;;;;;;;;;;;;21.75;54.67;100120.38;104938;1291;74837;-85
2023/07/26 11:29:13;;;;;;;;;;;;;;;21.74;54.57;100123.94;105145;1291;67335;-86
2023/07/26 11:32:19;;;;;;;;;;;;;;;21.81;54.63;100122.44;105025;1294;71535;-86
2023/07/26 11:35:16;;;;;;;;;;;;;;;21.83;54.54;100118.61;105290;1288;60045;-87
2023/07/26 11:38:11;;;;;;;;;;;;;;;21.86;54.26;100120.78;105393;1288;60371;-86
2023/07/26 11:41:14;;;;;;;;;;;;;;;21.91;54.31;100120.66;105377;1288;74222;-86
2023/07/26 11:44:20;;;;;;;;;;;;;;;21.95;54.23;100121.43;105418;1288;67166;-86
2023/07/26 11:47:32;;;;;;;;;;;;;;;21.97;54.04;100115.81;105489;1287;116703;-86
2023/07/26 11:51:00;;;;;;;;;;;;;;;;;;;;;
2023/07/26 11:54:04;;;;;;;;;;;;;;;22.08;53.99;100112.77;104920;1294;61883;-86
2023/07/26 11:57:13;;;;;;;;;;;;;;;22.12;53.76;100113.73;104967;1296;75144;-87
2023/07/26 12:00:04;;;;;;;;;;;;;;;22.09;53.59;100112.73;104929;1294;67331;-88
2023/07/26 12:02:54;;;;;;;;;;;;;;;22.05;53.11;100107.39;104589;1297;71455;-88
2023/07/26 12:06:19;;;;;;;;;;;;;;;21.95;53.47;100112.96;104627;1297;61999;-88
2023/07/26 12:09:31;;;;;;;;;;;;;;;21.85;53.26;100108.77;105230;1297;60062;-89
2023/07/26 12:12:45;;;;;;;;;;;;;;;21.85;53.29;100106.31;104668;1297;73368;-89
2023/07/26 12:15:55;;;;;;;;;;;;;;;21.82;53.16;100107.46;105073;1297;67416;-88
2023/07/26 12:19:19;;;;;;;;;;;;;;;21.79;53.15;100109.42;104626;1296;71108;-88
2023/07/26 12:22:42;;;;;;;;;;;;;;;21.71;52.86;100109.80;104767;1297;62112;-88
2023/07/26 12:25:53;;;;;;;;;;;;;;;21.70;53.02;100109.66;104738;1297;59986;-88
2023/07/26 12:29:03;;;;;;;;;;;;;;;21.70;52.97;100113.40;105053;1294;74298;-89
2023/07/26 12:32:30;;;;;;;;;;;;;;;21.75;53.02;100117.39;104654;1294;249172;-89
2023/07/26 12:35:55;;;;;;;;;;;;;;;21.84;52.99;100118.04;105019;1297;74054;-90
2023/07/26 12:39:21;;;;;;;;;;;;;;;21.96;53.01;100117.32;105255;1292;60672;-89
2023/07/26 12:42:29;;;;;;;;;;;;;;;22.13;52.96;100117.02;105067;1293;60280;-89
2023/07/26 12:45:38;;;;;;;;;;;;;;;22.31;52.86;100113.37;105018;1292;74149;-89
2023/07/26 12:49:06;;;;;;;;;;;;;;;22.51;52.67;100115.82;104973;1294;68080;-90
2023/07/26 12:52:40;;;;;;;;;;;;;;;22.53;52.51;100109.65;105003;1291;72631;-90
2023/07/26 12:55:57;;;;;;;;;;;;;;;22.49;52.39;100103.97;104996;1291;60066;-88
2023/07/26 12:59:32;;;;;;;;;;;;;;;22.53;52.57;100110.05;105051;1288;62181;-89
2023/07/26 13:30:30;;;;;;;;;;;;;;;22.70;51.05;100088.89;103503;1290;75853;-88
2023/07/26 13:33:56;;;;;;;;;;;;;;;22.64;50.92;100098.65;104828;1297;67412;-88
2023/07/26 13:37:23;;;;;;;;;;;;;;;22.58;50.91;100096.98;104868;1294;71266;-88
2023/07/26 13:40:52;;;;;;;;;;;;;;;22.58;50.84;100091.70;104735;1296;62043;-88
2023/07/26 14:42:16;;;;;;;;;;;;;;;;;;;;;
2023/07/26 14:45:32;;;;;;;;;;;;;;;22.53;47.92;100116.14;104589;1300;75214;-90
2023/07/26 16:12:46;;;;;;;;;;;;;;;20.75;46.23;100155.45;95592;1292;66477;-87
2023/07/26 16:16:18;;;;;;;;;;;;;;;20.64;46.20;100159.16;105329;1294;74020;-87
2023/07/26 16:19:28;;;;;;;;;;;;;;;20.55;46.05;100159.41;105159;1291;60165;-87
2023/07/26 16:22:55;;;;;;;;;;;;;;;20.52;46.32;100168.38;105248;1291;60364;-87
2023/07/26 16:26:33;;;;;;;;;;;;;;;;;;;;;
2023/07/26 16:33:18;;;;;;;;;;;;;;;;;;;;;
2023/07/26 16:36:45;;;;;;;;;;;;;;;20.64;46.11;100185.98;104373;1302;61882;-87
2023/07/26 16:40:10;;;;;;;;;;;;;;;20.66;45.92;100189.84;104107;1306;61927;-87
2023/07/26 16:43:48;;;;;;;;;;;;;;;;;;;;;
2023/07/26 16:47:02;;;;;;;;;;;;;;;20.51;45.84;100201.30;104860;1311;67985;-88
2023/07/26 16:50:28;;;;;;;;;;;;;;;;;;;;;
2023/07/26 16:53:51;;;;;;;;;;;;;;;20.27;45.83;100199.66;102964;1318;62014;-87
2023/07/26 16:57:12;;;;;;;;;;;;;;;20.15;45.84;100205.86;102901;1318;61915;-88
2023/07/26 17:00:07;;;;;;;;;;;;;;;20.02;45.91;100213.35;103029;1318;74863;-88
2023/07/26 17:03:21;;;;;;;;;;;;;;;;;;;;;
2023/07/26 17:06:36;;;;;;;;;;;;;;;19.80;46.14;100218.84;103205;1314;71423;-87
2023/07/26 17:10:00;;;;;;;;;;;;;;;19.74;46.21;100223.77;103506;1308;60249;-88
2023/07/26 17:13:26;;;;;;;;;;;;;;;19.68;46.23;100223.85;103899;1309;61966;-87
2023/07/26 17:16:55;;;;;;;;;;;;;;;19.58;46.15;100225.48;104162;1300;72939;-88
2023/07/26 17:20:21;;;;;;;;;;;;;;;19.48;46.31;100226.17;104368;1300;70021;-87
2023/07/26 17:23:38;;;;;;;;;;;;;;;;;;;;;
2023/07/26 17:26:39;;;;;;;;;;;;;;;19.37;46.34;100229.98;100578;1294;5184758;-88
2023/07/26 17:29:51;;;;;;;;;;;;;;;19.34;46.51;100232.46;104884;1294;60612;-87
2023/07/26 17:33:28;;;;;;;;;;;;;;;19.31;46.54;100235.78;104859;1294;75316;-87
2023/07/26 17:36:56;;;;;;;;;;;;;;;;;;;;;
2023/07/26 17:40:17;;;;;;;;;;;;;;;19.16;46.62;100228.82;105109;1294;71400;-87
2023/07/26 17:43:51;;;;;;;;;;;;;;;19.09;47.08;100229.74;104610;1297;59476;-87
2023/07/26 17:47:12;;;;;;;;;;;;;;;19.01;47.11;100229.80;104628;1298;60038;-86
2023/07/26 17:50:18;;;;;;;;;;;;;;;18.97;47.15;100230.45;104697;1298;74183;-87
2023/07/26 17:53:29;;;;;;;;;;;;;;;18.91;47.19;100230.06;104680;1298;68639;-87
2023/07/26 17:56:50;;;;;;;;;;;;;;;18.76;47.22;100233.88;104532;1298;73114;-87
2023/07/26 18:00:14;;;;;;;;;;;;;;;18.65;47.35;100236.42;104226;1303;61988;-87
2023/07/26 18:03:39;;;;;;;;;;;;;;;18.58;47.47;100239.27;104259;1303;60147;-87
2023/07/26 18:06:54;;;;;;;;;;;;;;;18.56;47.69;100247.41;104220;1303;74924;-87
2023/07/26 18:10:04;;;;;;;;;;;;;;;18.49;47.67;100254.91;104215;1308;68584;-88
2023/07/26 18:13:10;;;;;;;;;;;;;;;18.44;47.74;100261.27;104223;1302;72470;-88
2023/07/26 18:16:33;;;;;;;;;;;;;;;18.38;47.66;100267.36;104252;1304;61965;-87
2023/07/26 18:19:51;;;;;;;;;;;;;;;18.29;47.63;100268.59;104401;1300;61931;-87
2023/07/26 18:23:19;;;;;;;;;;;;;;;18.12;47.56;100273.48;104535;1300;75863;-87
2023/07/26 18:26:25;;;;;;;;;;;;;;;18.04;47.63;100279.86;104463;1299;67100;-87
2023/07/26 18:29:31;;;;;;;;;;;;;;;17.96;47.65;100283.23;104516;1301;74038;-86
2023/07/26 18:32:20;;;;;;;;;;;;;;;17.92;47.71;100284.52;104525;1299;61973;-86
2023/07/26 18:35:34;;;;;;;;;;;;;;;17.88;47.82;100291.17;104895;1296;61969;-86
2023/07/26 18:38:58;;;;;;;;;;;;;;;17.82;47.86;100291.95;105270;1291;75025;-86
2023/07/26 18:42:16;;;;;;;;;;;;;;;17.78;47.95;100296.51;105175;1291;67684;-87
2023/07/26 18:45:12;;;;;;;;;;;;;;;17.76;47.97;100300.82;105204;1292;71182;-86
2023/07/26 18:48:05;;;;;;;;;;;;;;;17.74;48.02;100305.11;105162;1291;61990;-86
2023/07/26 18:50:52;;;;;;;;;;;;;;;17.70;48.05;100309.52;105143;1291;62067;-84
2023/07/26 18:53:41;;;;;;;;;;;;;;;17.67;48.18;100311.61;105104;1291;75283;-85
2023/07/26 18:56:28;;;;;;;;;;;;;;;17.63;48.14;100322.42;105095;1294;67267;-85
2023/07/26 18:59:15;;;;;;;;;;;;;;;17.57;48.28;100329.52;105118;1291;72145;-84
2023/07/26 19:02:03;;;;;;;;;;;;;;;17.52;48.37;100333.40;105128;1291;63595;-85
2023/07/26 19:04:50;;;;;;;;;;;;;;;17.48;48.30;100334.11;104964;1292;61980;-85
2023/07/26 19:07:39;;;;;;;;;;;;;;;17.41;48.47;100337.41;104819;1292;320029;-85
2023/07/26 19:10:26;;;;;;;;;;;;;;;17.36;48.64;100341.52;105088;1292;67273;-84
2023/07/26 19:13:45;;;;;;;;;;;;;;;17.34;48.74;100340.75;105094;1291;71306;-88
2023/07/26 19:17:09;;;;;;;;;;;;;;;17.27;48.79;100342.66;104569;1297;60242;-89
2023/07/26 19:20:35;;;;;;;;;;;;;;;17.21;48.93;100343.10;104624;1296;61977;-90
2023/07/26 19:26:25;;;;;;;;;;;;;;;17.13;49.15;100343.66;101266;1292;64589;-88
2023/07/26 19:29:37;;;;;;;;;;;;;;;17.10;49.27;100339.83;105086;1291;71509;-87
2023/07/26 19:32:41;;;;;;;;;;;;;;;17.05;49.33;100336.05;105126;1290;60703;-87
2023/07/26 19:35:31;;;;;;;;;;;;;;;17.01;49.36;100340.06;105071;1290;62079;-87
2023/07/26 19:38:57;;;;;;;;;;;;;;;16.97;49.42;100342.84;105241;1290;75014;-88
2023/07/26 19:41:51;;;;;;;;;;;;;;;16.95;49.53;100344.36;105078;1291;68883;-88
2023/07/26 19:45:01;;;;;;;;;;;;;;;16.93;49.69;100343.58;105399;1289;71664;-88
2023/07/26 19:47:56;;;;;;;;;;;;;;;16.91;49.65;100343.50;104848;1301;62267;-88
2023/07/26 19:51:03;;;;;;;;;;;;;;;16.89;49.77;100351.05;104497;1297;60516;-88
2023/07/26 19:54:11;;;;;;;;;;;;;;;16.86;49.85;100352.27;104504;1299;74327;-87
2023/07/26 19:57:35;;;;;;;;;;;;;;;16.83;49.93;100358.14;104378;1300;67673;-88
2023/07/26 20:00:43;;;;;;;;;;;;;;;16.78;50.05;100358.01;104475;1299;72365;-88
2023/07/26 20:04:22;;;;;;;;;;;;;;;;;;;;;
2023/07/26 20:07:15;;;;;;;;;;;;;;;16.75;50.24;100367.55;104242;1302;60217;-85
2023/07/26 20:10:21;;;;;;;;;;;;;;;16.73;50.29;100370.98;104220;1301;75301;-88
2023/07/26 20:13:17;;;;;;;;;;;;;;;16.68;50.47;100369.27;104173;1299;69947;-87
2023/07/26 20:16:43;;;;;;;;;;;;;;;16.61;50.57;100373.05;104060;1302;73241;-88
2023/07/26 20:20:09;;;;;;;;;;;;;;;16.55;50.65;100378.19;104052;1302;62196;-88
2023/07/26 20:23:17;;;;;;;;;;;;;;;16.48;50.85;100376.91;104174;1302;61989;-88
2023/07/26 20:26:32;;;;;;;;;;;;;;;16.40;50.86;100376.24;104138;1302;74915;-88
2023/07/26 20:29:39;;;;;;;;;;;;;;;16.29;50.95;100373.42;104250;1302;68875;-88
2023/07/26 20:32:30;;;;;;;;;;;;;;;16.23;51.03;100377.34;104196;1299;71206;-88
2023/07/26 20:35:36;;;;;;;;;;;;;;;16.17;51.14;100378.96;104248;1301;62225;-88
2023/07/26 20:39:03;;;;;;;;;;;;;;;16.08;51.24;100384.46;104107;1299;62015;-88
2023/07/26 20:42:17;;;;;;;;;;;;;;;15.99;51.34;100383.08;104238;1302;73922;-88
2023/07/26 20:45:41;;;;;;;;;;;;;;;15.91;51.32;100387.95;104243;1299;67557;-87